Time;durP1;ratioP1;P1;durP2;ratioP2;P2;SDS_P1;SDS_P2;PMS_P1;PMS_P2;Temp;Humidity;BMP_temperature;BMP_pressure;BME280_temperature;BME280_humidity;BME280_pressure;Samples;Min_cycle;Max_cycle;Signal;HPM_P1;HPM_P2
2022/05/18 00:01:43;;;;;;;5.20;3.88;;;;;;;10.61;69.24;99082.66;6166080;23;20017;-79
2022/05/18 00:04:09;;;;;;;5.32;3.80;;;;;;;10.54;69.43;99087.13;6136386;23;20017;-80
2022/05/18 00:06:34;;;;;;;5.13;3.72;;;;;;;10.37;69.07;99079.63;6157194;23;20040;-79
2022/05/18 00:09:00;;;;;;;4.18;3.30;;;;;;;10.24;69.09;99087.69;6132552;23;20017;-79
2022/05/18 00:11:27;;;;;;;4.95;3.70;;;;;;;10.01;69.12;99076.84;6160461;23;20021;-79
2022/05/18 00:13:54;;;;;;;8.27;3.65;;;;;;;9.93;68.68;99090.81;6187542;23;20095;-83
2022/05/18 00:16:23;;;;;;;4.22;3.33;;;;;;;9.76;68.99;99087.66;6182250;23;20100;-79
2022/05/18 00:18:51;;;;;;;5.22;3.20;;;;;;;9.61;69.12;99089.59;6156815;23;20346;-81
2022/05/18 00:21:16;;;;;;;7.07;3.17;;;;;;;9.47;69.11;99082.06;6132319;23;20066;-79
2022/05/18 00:23:42;;;;;;;3.92;2.88;;;;;;;9.57;69.14;99103.56;6184636;23;20084;-81
2022/05/18 00:26:10;;;;;;;5.75;3.05;;;;;;;9.47;69.01;99107.16;6157068;23;20454;-79
2022/05/18 00:28:36;;;;;;;5.32;3.45;;;;;;;9.39;68.88;99112.47;6156712;23;20017;-79
2022/05/18 00:31:03;;;;;;;4.05;2.90;;;;;;;9.29;68.95;99109.16;6132326;23;20071;-79
2022/05/18 00:33:30;;;;;;;5.22;3.22;;;;;;;9.18;68.88;99101.53;6157924;23;20020;-80
2022/05/18 00:35:57;;;;;;;3.83;2.63;;;;;;;9.00;69.01;99092.25;6134493;23;20036;-82
2022/05/18 00:38:24;;;;;;;4.47;3.13;;;;;;;9.02;68.79;99102.63;6183947;23;20067;-81
2022/05/18 00:40:50;;;;;;;3.95;2.90;;;;;;;8.84;68.36;99095.94;6157558;23;20013;-79
2022/05/18 00:43:29;;;;;;;3.83;2.92;;;;;;;8.96;68.83;99126.06;6159699;23;20009;-79
2022/05/18 00:45:55;;;;;;;3.70;3.15;;;;;;;8.85;68.79;99121.84;6164744;23;20108;-79
2022/05/18 00:48:22;;;;;;;4.28;2.78;;;;;;;8.82;69.10;99127.09;6157266;23;20028;-79
2022/05/18 00:50:49;;;;;;;3.85;2.58;;;;;;;8.69;69.04;99110.84;6158836;23;20016;-81
2022/05/18 00:53:23;;;;;;;6.15;2.92;;;;;;;8.79;68.93;99134.94;6166500;23;20044;-80
2022/05/18 00:55:54;;;;;;;4.93;2.70;;;;;;;8.81;69.22;99134.91;6171186;23;20076;-80
2022/05/18 00:58:20;;;;;;;3.65;2.65;;;;;;;8.94;69.28;99136.44;6166206;23;20339;-79
2022/05/18 01:00:48;;;;;;;4.10;2.72;;;;;;;8.99;68.88;99128.63;6183701;23;20403;-79
2022/05/18 01:03:21;;;;;;;5.55;2.72;;;;;;;9.01;68.99;99114.72;6155878;23;20332;-78
2022/05/18 01:05:54;;;;;;;4.82;3.00;;;;;;;9.14;68.62;99133.59;6156323;23;20047;-80
2022/05/18 01:08:35;;;;;;;4.95;2.70;;;;;;;9.14;68.64;99127.56;6131920;23;20017;-79
2022/05/18 01:11:01;;;;;;;3.17;2.60;;;;;;;9.18;68.97;99127.50;6156544;23;20099;-80
2022/05/18 01:13:27;;;;;;;3.80;2.72;;;;;;;9.20;67.92;99145.63;6182347;23;20017;-79
2022/05/18 01:15:53;;;;;;;4.05;2.53;;;;;;;9.23;68.13;99162.91;6182556;23;20028;-79
2022/05/18 01:18:20;;;;;;;2.78;2.47;;;;;;;9.04;68.21;99145.84;6155851;23;20312;-80
2022/05/18 01:20:49;;;;;;;3.35;2.45;;;;;;;9.09;68.04;99163.09;6155424;23;20020;-80
2022/05/18 01:23:46;;;;;;;4.07;2.50;;;;;;;8.99;68.26;99162.34;6131874;23;20348;-78
2022/05/18 01:26:48;;;;;;;3.80;2.42;;;;;;;8.89;68.00;99166.81;6156479;23;20419;-79
2022/05/18 01:29:18;;;;;;;3.05;2.22;;;;;;;8.61;67.81;99129.97;6091947;23;20491;-79
2022/05/18 01:31:50;;;;;;;5.10;2.80;;;;;;;8.64;68.32;99146.34;6165952;23;20025;-82
2022/05/18 01:34:22;;;;;;;4.15;2.50;;;;;;;8.62;68.40;99150.69;6156492;23;20096;-79
2022/05/18 01:36:49;;;;;;;4.50;2.70;;;;;;;8.70;68.53;99177.41;6132942;23;20024;-79
2022/05/18 01:39:28;;;;;;;4.97;2.72;;;;;;;8.63;68.47;99175.75;6158134;23;20459;-81
2022/05/18 01:42:36;;;;;;;4.20;2.38;;;;;;;8.44;68.35;99159.47;6158990;23;20112;-82
2022/05/18 01:45:12;;;;;;;7.88;2.80;;;;;;;8.62;68.49;99193.88;6035620;23;20077;-83
2022/05/18 01:50:43;;;;;;;6.60;2.70;;;;;;;8.54;68.02;99196.56;6148640;23;20023;-80
2022/05/18 01:53:11;;;;;;;3.70;2.67;;;;;;;8.28;68.40;99156.16;6159831;23;20017;-81
2022/05/18 01:55:37;;;;;;;5.40;2.90;;;;;;;8.37;68.24;99186.34;6161663;23;20027;-82
2022/05/18 01:58:04;;;;;;;4.60;2.65;;;;;;;8.34;68.59;99173.41;6176245;23;20017;-80
2022/05/18 02:00:32;;;;;;;4.47;2.30;;;;;;;8.35;68.57;99170.81;6155622;23;20021;-81
2022/05/18 02:02:58;;;;;;;3.45;2.40;;;;;;;8.47;68.69;99200.94;6153930;23;20020;-80
2022/05/18 02:05:24;;;;;;;3.35;2.50;;;;;;;8.52;68.45;99198.31;6175751;23;20016;-81
2022/05/18 02:07:50;;;;;;;2.78;2.10;;;;;;;8.61;68.32;99218.97;6210410;23;20032;-78
2022/05/18 02:10:16;;;;;;;3.30;2.08;;;;;;;8.59;68.55;99216.41;6211551;23;20056;-80
2022/05/18 02:12:42;;;;;;;4.20;2.30;;;;;;;8.67;68.43;99224.13;6185422;23;20009;-80
2022/05/18 02:15:09;;;;;;;4.35;2.45;;;;;;;8.61;68.36;99218.13;6151321;23;20013;-80
2022/05/18 02:17:37;;;;;;;3.22;1.90;;;;;;;8.74;68.43;99237.88;6140830;23;20029;-81
2022/05/18 02:20:05;;;;;;;3.78;2.40;;;;;;;8.53;68.23;99200.91;6101717;23;20077;-81
2022/05/18 02:22:31;;;;;;;3.50;2.35;;;;;;;8.78;68.26;99233.50;6101052;23;20014;-81
2022/05/18 02:24:57;;;;;;;5.90;2.47;;;;;;;8.79;68.11;99224.84;6127154;23;20021;-81
2022/05/18 02:27:23;;;;;;;4.07;2.78;;;;;;;8.85;67.91;99233.41;6124264;23;20025;-78
2022/05/18 02:29:50;;;;;;;6.43;3.30;;;;;;;8.47;67.57;99177.59;6124183;23;20640;-80
2022/05/18 02:32:17;;;;;;;3.60;2.33;;;;;;;8.83;67.57;99229.97;6124000;23;20045;-80
2022/05/18 02:34:43;;;;;;;5.68;2.15;;;;;;;8.99;67.54;99261.81;6126138;23;20014;-79
2022/05/18 02:37:09;;;;;;;3.95;2.40;;;;;;;8.95;67.84;99254.94;6100964;23;20161;-81
2022/05/18 02:39:35;;;;;;;4.88;2.28;;;;;;;9.08;67.61;99260.00;6127339;23;20463;-80
2022/05/18 02:42:01;;;;;;;3.55;2.20;;;;;;;9.16;67.49;99265.94;6134044;23;20096;-79
2022/05/18 02:44:27;;;;;;;4.88;2.47;;;;;;;9.22;66.98;99273.66;6132762;23;20044;-79
2022/05/18 02:47:01;;;;;;;4.45;1.95;;;;;;;9.12;67.04;99240.94;6135374;23;20306;-79
2022/05/18 02:49:27;;;;;;;6.20;2.15;;;;;;;9.36;67.15;99265.72;6107119;23;20467;-80
2022/05/18 02:51:54;;;;;;;3.83;1.95;;;;;;;9.44;66.81;99263.91;6132840;23;20049;-80
2022/05/18 02:57:07;;;;;;;3.58;1.70;;;;;;;9.64;66.31;99274.00;6127204;23;20122;-81
2022/05/18 02:59:34;;;;;;;2.28;2.00;;;;;;;9.42;66.11;99223.22;6125964;23;20033;-81
2022/05/18 03:02:01;;;;;;;2.67;2.00;;;;;;;9.65;66.01;99239.34;6125041;23;20079;-80
2022/05/18 03:04:29;;;;;;;3.90;1.70;;;;;;;9.90;66.02;99278.00;6125646;23;20081;-80
2022/05/18 03:06:56;;;;;;;5.55;2.30;;;;;;;10.04;65.72;99276.94;6123619;23;20032;-80
2022/05/18 03:09:22;;;;;;;3.53;2.08;;;;;;;10.07;65.20;99275.16;6122689;23;20017;-80
2022/05/18 03:11:50;;;;;;;2.95;2.25;;;;;;;10.19;64.85;99278.44;6122309;23;20088;-82
2022/05/18 03:14:17;;;;;;;3.42;2.10;;;;;;;10.31;65.21;99277.38;6122438;23;20028;-81
2022/05/18 03:16:44;;;;;;;3.13;2.22;;;;;;;10.40;64.37;99290.28;6128296;23;20040;-80
2022/05/18 03:19:11;;;;;;;4.10;2.30;;;;;;;10.41;64.49;99284.19;6183660;23;20013;-81
2022/05/18 03:24:22;;;;;;;7.82;3.97;;;;;;;10.57;63.39;99289.13;6156165;23;20024;-80
2022/05/18 03:26:48;;;;;;;5.82;3.33;;;;;;;10.77;64.05;99302.66;6156853;23;20054;-79
2022/05/18 03:29:14;;;;;;;4.05;2.00;;;;;;;10.84;63.52;99304.25;6131220;23;20013;-81
2022/05/18 03:31:41;;;;;;;3.05;1.90;;;;;;;10.64;63.45;99267.34;6183490;23;20023;-81
2022/05/18 03:34:08;;;;;;;2.35;1.88;;;;;;;10.66;63.02;99247.34;6157442;23;20458;-82
2022/05/18 03:36:34;;;;;;;4.70;1.60;;;;;;;11.14;63.19;99298.50;6159131;23;20017;-81
2022/05/18 03:39:03;;;;;;;2.25;1.75;;;;;;;11.18;62.66;99294.09;6168260;23;20016;-80
2022/05/18 03:41:29;;;;;;;2.88;1.63;;;;;;;11.05;62.35;99255.28;6184441;23;20013;-79
2022/05/18 03:43:55;;;;;;;3.88;2.00;;;;;;;11.21;62.23;99266.25;6133873;23;20100;-79
2022/05/18 03:46:22;;;;;;;3.53;1.60;;;;;;;11.51;61.92;99294.31;6184790;23;20021;-80
2022/05/18 03:48:48;;;;;;;2.20;1.58;;;;;;;11.59;61.81;99275.03;6142914;23;20027;-81
2022/05/18 03:51:20;;;;;;;4.95;2.00;;;;;;;11.93;61.16;99322.97;6165043;23;20021;-80
2022/05/18 03:53:46;;;;;;;2.28;1.60;;;;;;;11.74;61.10;99270.38;6157583;23;20027;-80
2022/05/18 03:56:14;;;;;;;2.33;1.52;;;;;;;11.56;60.27;99203.91;6136015;23;20018;-80
2022/05/18 03:58:41;;;;;;;1.85;1.52;;;;;;;12.07;59.88;99288.78;6184150;23;20039;-81
2022/05/18 04:01:08;;;;;;;2.67;1.58;;;;;;;12.32;59.46;99322.97;6141769;23;20068;-80
2022/05/18 04:03:43;;;;;;;2.08;1.40;;;;;;;12.25;59.50;99312.72;6157329;23;20017;-79
2022/05/18 04:06:09;;;;;;;2.00;1.52;;;;;;;12.49;58.93;99334.75;6182826;23;20016;-80
2022/05/18 04:08:35;;;;;;;3.88;1.50;;;;;;;12.65;58.54;99324.78;6183408;23;20028;-78
2022/05/18 04:11:01;;;;;;;5.30;1.60;;;;;;;12.85;57.99;99328.66;6183514;23;20021;-81
2022/05/18 04:13:28;;;;;;;2.95;1.50;;;;;;;12.98;57.54;99313.53;6132975;23;20484;-79
2022/05/18 04:15:55;;;;;;;2.33;1.40;;;;;;;13.08;57.28;99325.44;6165131;23;20036;-82
2022/05/18 04:18:25;;;;;;;4.75;1.45;;;;;;;13.21;56.59;99332.03;6192210;23;20024;-79
2022/05/18 04:20:54;;;;;;;3.50;1.70;;;;;;;13.38;56.66;99328.09;6160220;23;20508;-81
2022/05/18 04:23:20;;;;;;;3.30;1.40;;;;;;;13.50;56.42;99333.03;6184298;23;20017;-81
2022/05/18 04:25:47;;;;;;;3.13;1.35;;;;;;;13.62;55.77;99331.81;6182663;23;20028;-85
2022/05/18 04:28:14;;;;;;;1.85;1.58;;;;;;;13.80;55.41;99340.03;6156432;23;20063;-77
2022/05/18 04:34:48;;;;;;;1.73;1.30;;;;;;;13.79;54.28;99294.72;6112744;23;20076;-81
2022/05/18 04:37:15;;;;;;;3.15;1.40;;;;;;;14.18;54.04;99350.25;6132083;23;20017;-81
2022/05/18 04:39:41;;;;;;;1.50;1.30;;;;;;;14.33;53.60;99349.75;6157596;23;20040;-81
2022/05/18 04:42:07;;;;;;;1.65;1.40;;;;;;;14.52;53.41;99352.66;6157550;23;20013;-81
2022/05/18 04:44:33;;;;;;;1.88;1.40;;;;;;;14.65;52.93;99360.97;6158389;23;20017;-81
2022/05/18 04:47:00;;;;;;;3.60;1.50;;;;;;;14.83;52.59;99359.50;6157408;23;20096;-82
2022/05/18 04:49:27;;;;;;;2.92;2.00;;;;;;;15.02;52.17;99357.13;6159391;23;20021;-80
2022/05/18 04:51:52;;;;;;;1.95;1.52;;;;;;;15.05;51.77;99349.19;6161058;23;20017;-82
2022/05/18 04:54:19;;;;;;;1.67;1.38;;;;;;;15.21;51.18;99353.88;6183406;23;20023;-80
2022/05/18 04:56:45;;;;;;;2.40;1.30;;;;;;;15.40;51.32;99369.81;6159029;23;20423;-84
2022/05/18 04:59:12;;;;;;;1.65;1.50;;;;;;;15.45;51.02;99346.91;6157143;23;20024;-80
2022/05/18 05:01:39;;;;;;;1.90;1.25;;;;;;;15.75;50.30;99366.84;6159699;23;20009;-81
2022/05/18 05:04:13;;;;;;;3.17;1.50;;;;;;;15.79;49.75;99361.41;6138908;23;20024;-79
2022/05/18 05:06:43;;;;;;;3.90;1.40;;;;;;;15.92;49.79;99351.34;6164066;23;20049;-81
2022/05/18 05:09:10;;;;;;;2.65;1.00;;;;;;;16.20;49.25;99366.03;6182420;23;20020;-81
2022/05/18 05:11:36;;;;;;;1.92;1.40;;;;;;;16.35;48.86;99369.78;6158839;23;20114;-79
2022/05/18 05:14:05;;;;;;;2.42;1.50;;;;;;;16.50;48.34;99385.88;6161110;23;20025;-80
2022/05/18 05:16:32;;;;;;;3.85;1.42;;;;;;;16.42;47.70;99326.63;6159223;23;20021;-79
2022/05/18 05:18:59;;;;;;;1.90;1.58;;;;;;;16.58;47.35;99323.38;6157618;23;20020;-81
2022/05/18 05:21:44;;;;;;;3.05;1.60;;;;;;;16.91;46.27;99340.41;6184289;23;20051;-80
2022/05/18 05:24:46;;;;;;;1.48;1.38;;;;;;;17.34;46.15;99379.81;6162095;23;20017;-83
2022/05/18 05:27:21;;;;;;;6.38;1.52;;;;;;;17.30;46.10;99300.22;6173588;23;20040;-79
2022/05/18 05:29:48;;;;;;;1.80;1.33;;;;;;;17.74;44.99;99309.63;6172308;23;20127;-81
2022/05/18 05:35:53;;;;;;;2.58;1.27;;;;;;;18.67;44.09;99306.06;6128163;23;20072;-82
2022/05/18 05:38:25;;;;;;;2.72;1.23;;;;;;;20.10;43.50;99340.84;6211006;23;20001;-79
2022/05/18 05:40:51;;;;;;;;;;;;;;;22.46;41.27;99361.22;6185423;23;20048;-81
2022/05/18 05:43:23;;;;;;;2.42;1.83;;;;;;;24.64;37.93;99337.25;6185398;23;19904;-81
2022/05/18 05:46:10;;;;;;;1.80;1.50;;;;;;;26.43;34.57;99307.44;6147089;23;20021;-82
2022/05/18 05:48:42;;;;;;;2.85;1.30;;;;;;;28.23;32.59;99357.00;6187183;23;20028;-80
2022/05/18 05:51:17;;;;;;;2.08;1.40;;;;;;;29.58;30.54;99363.38;6162064;23;20123;-82
2022/05/18 05:53:49;;;;;;;1.70;1.60;;;;;;;30.93;28.78;99358.31;6146592;23;20096;-82
2022/05/18 05:56:20;;;;;;;2.83;2.53;;;;;;;31.69;26.81;99314.75;6163756;23;20052;-82
2022/05/18 05:58:59;;;;;;;4.05;3.20;;;;;;;32.90;25.42;99296.47;6157691;23;20031;-82
2022/05/18 06:02:15;;;;;;;4.57;2.05;;;;;;;34.46;23.94;99355.34;6141989;23;20017;-80
2022/05/18 06:04:49;;;;;;;3.58;2.03;;;;;;;35.60;23.06;99354.47;6132211;23;20135;-83
2022/05/18 06:07:18;;;;;;;4.50;1.52;;;;;;;35.30;21.74;99319.28;6110170;23;20049;-82
2022/05/18 06:09:54;;;;;;;3.35;1.50;;;;;;;35.95;20.43;99286.22;6185068;23;20017;-82
2022/05/18 06:12:20;;;;;;;2.78;1.70;;;;;;;36.54;19.49;99305.97;6139440;23;20308;-82
2022/05/18 06:14:47;;;;;;;2.20;1.73;;;;;;;37.12;19.15;99364.59;6184707;23;20065;-81
2022/05/18 06:17:14;;;;;;;3.00;1.30;;;;;;;37.33;17.86;99323.03;6153067;23;20621;-82
2022/05/18 06:19:40;;;;;;;1.83;1.13;;;;;;;38.13;16.62;99323.38;6152856;23;20028;-81
2022/05/18 06:22:07;;;;;;;1.65;1.30;;;;;;;38.21;16.83;99287.03;6152265;23;20096;-81
2022/05/18 06:24:33;;;;;;;2.53;1.60;;;;;;;38.69;15.92;99299.63;6154333;23;20025;-80
2022/05/18 06:27:00;;;;;;;1.30;1.20;;;;;;;38.45;15.49;99298.38;6154464;23;20017;-80
2022/05/18 06:29:28;;;;;;;1.33;1.20;;;;;;;39.59;14.86;99333.59;6153777;23;20430;-81
2022/05/18 06:32:06;;;;;;;1.33;1.20;;;;;;;40.69;14.29;99310.97;6128581;23;20104;-81
2022/05/18 06:34:32;;;;;;;1.50;1.20;;;;;;;39.94;14.56;99340.56;6155692;23;20017;-84
2022/05/18 06:36:59;;;;;;;2.97;1.50;;;;;;;39.03;14.32;99340.41;6163258;23;20024;-80
2022/05/18 06:39:25;;;;;;;1.83;1.00;;;;;;;36.43;14.59;99334.41;6160238;23;20045;-82
2022/05/18 06:41:51;;;;;;;1.55;1.20;;;;;;;33.65;15.96;99316.78;6133322;23;20017;-83
2022/05/18 06:44:18;;;;;;;3.15;1.10;;;;;;;31.92;16.85;99384.09;6134497;23;20024;-84
2022/05/18 06:46:44;;;;;;;1.92;1.00;;;;;;;30.47;17.96;99336.09;6159289;23;20044;-82
2022/05/18 06:49:12;;;;;;;2.08;1.15;;;;;;;30.02;18.16;99384.25;6130101;23;20029;-82
2022/05/18 06:51:51;;;;;;;1.88;1.10;;;;;;;31.04;18.55;99383.22;6156615;23;20017;-87
2022/05/18 06:54:17;;;;;;;1.80;1.05;;;;;;;33.16;16.99;99352.81;6154986;23;20032;-84
2022/05/18 06:56:44;;;;;;;1.23;0.88;;;;;;;34.34;16.02;99309.00;6159878;23;20040;-83
2022/05/18 06:59:12;;;;;;;1.85;0.90;;;;;;;34.53;15.46;99384.16;6165337;23;20056;-82
2022/05/18 07:01:41;;;;;;;1.77;1.10;;;;;;;34.46;15.38;99347.25;6171004;23;20001;-82
2022/05/18 07:04:47;;;;;;;0.98;0.90;;;;;;;32.81;15.68;99305.53;6169608;23;20028;-80
2022/05/18 07:07:40;;;;;;;2.17;0.98;;;;;;;32.42;16.04;99313.28;6150086;23;20028;-81
2022/05/18 07:10:29;;;;;;;3.20;1.00;;;;;;;33.45;16.14;99370.31;6191795;23;20187;-83
2022/05/18 07:17:07;;;;;;;2.58;1.08;;;;;;;38.29;12.97;99378.34;6220126;23;20024;-85
2022/05/18 07:20:04;;;;;;;1.10;1.00;;;;;;;38.96;12.90;99358.59;6178188;23;20047;-86
2022/05/18 07:22:58;;;;;;;3.00;0.80;;;;;;;40.20;12.04;99326.00;6207137;23;20021;-88
2022/05/18 07:25:25;;;;;;;2.03;0.90;;;;;;;37.73;12.64;99312.38;6170668;23;20111;-85
2022/05/18 07:28:03;;;;;;;3.10;1.10;;;;;;;35.98;13.89;99389.53;6167115;23;20017;-82
2022/05/18 07:33:37;;;;;;;1.67;1.02;;;;;;;38.59;12.74;99293.78;6197749;22;20029;-83
2022/05/18 07:36:05;;;;;;;1.98;0.93;;;;;;;41.32;11.71;99380.00;6170119;23;20037;-85
2022/05/18 07:38:35;;;;;;;1.85;0.90;;;;;;;42.03;10.43;99394.13;6166822;23;20021;-85
2022/05/18 07:41:02;;;;;;;1.13;0.80;;;;;;;42.52;10.39;99382.31;6183670;23;20021;-85
2022/05/18 07:43:36;;;;;;;1.55;1.00;;;;;;;42.52;9.96;99319.47;6157788;23;20018;-85
2022/05/18 07:46:45;;;;;;;5.20;1.40;;;;;;;43.15;9.66;99390.97;6160033;23;20013;-83
2022/05/18 07:49:21;;;;;;;1.88;1.27;;;;;;;41.64;11.17;99405.28;6165045;23;20024;-83
2022/05/18 07:51:51;;;;;;;3.30;1.88;;;;;;;40.37;11.25;99352.69;6137875;23;20079;-85
2022/05/18 07:54:22;;;;;;;5.78;3.33;;;;;;;40.39;11.38;99345.13;6136236;23;20044;-85
2022/05/18 08:00:30;;;;;;;9.55;7.88;;;;;;;39.51;11.35;99350.16;6187655;23;20024;-88
2022/05/18 08:03:38;;;;;;;;;;;;;;;;;;;;;
2022/05/18 08:06:10;;;;;;;17.20;15.38;;;;;;;42.59;10.45;99389.34;6165320;23;20083;-85
2022/05/18 08:15:08;;;;;;;4.22;2.83;;;;;;;43.81;9.58;99357.09;6251908;22;20011;-84
2022/05/18 08:17:57;;;;;;;;;;;;;;;;;;;;;
2022/05/18 08:24:11;;;;;;;1.65;1.38;;;;;;;43.96;9.05;99373.81;6267577;22;20139;-85
2022/05/18 08:26:38;;;;;;;2.15;1.42;;;;;;;42.87;9.19;99371.47;6280791;22;20022;-82
2022/05/18 08:29:14;;;;;;;9.57;8.57;;;;;;;40.56;9.42;99371.81;6277151;22;20023;-81
2022/05/18 08:31:43;;;;;;;9.43;7.45;;;;;;;39.01;10.32;99386.81;6224884;22;20449;-83
2022/05/18 08:34:09;;;;;;;6.85;5.47;;;;;;;37.98;11.33;99375.13;6250056;22;20042;-84
2022/05/18 08:36:35;;;;;;;3.67;2.83;;;;;;;39.11;10.93;99367.34;6249884;22;20115;-84
2022/05/18 08:39:08;;;;;;;8.40;6.82;;;;;;;40.76;10.42;99404.44;6227620;22;20022;-86
2022/05/18 08:42:15;;;;;;;;;;;;;;;;;;;;;
2022/05/18 08:44:46;;;;;;;7.53;2.83;;;;;;;39.10;10.77;99381.19;6257920;22;20073;-82
2022/05/18 08:47:34;;;;;;;2.60;2.40;;;;;;;40.07;9.81;99364.16;6239980;22;20020;-81
2022/05/18 08:50:05;;;;;;;3.88;1.52;;;;;;;39.59;10.18;99412.50;6230723;22;20026;-82
2022/05/18 08:52:58;;;;;;;4.63;2.70;;;;;;;38.68;10.36;99367.78;6278057;22;20016;-81
2022/05/18 08:55:41;;;;;;;4.70;3.85;;;;;;;39.42;10.75;99368.59;6250041;22;20027;-83
2022/05/18 08:58:29;;;;;;;7.85;3.17;;;;;;;41.18;9.29;99368.41;6250027;22;20091;-80
2022/05/18 09:01:14;;;;;;;3.67;1.60;;;;;;;42.23;8.83;99377.47;6223691;22;20020;-80
2022/05/18 09:03:48;;;;;;;4.47;1.30;;;;;;;42.69;9.00;99398.88;6276816;22;20019;-81
2022/05/18 09:06:48;;;;;;;2.20;1.45;;;;;;;41.84;8.96;99376.91;6250846;22;20060;-82
2022/05/18 09:12:06;;;;;;;3.35;1.88;;;;;;;39.55;10.36;99411.25;6223151;22;19911;-80
2022/05/18 09:14:32;;;;;;;3.58;2.17;;;;;;;37.76;10.97;99403.41;6214847;22;20027;-82
2022/05/18 09:17:27;;;;;;;3.35;1.73;;;;;;;37.83;11.19;99396.13;6220531;23;20031;-81
2022/05/18 09:20:13;;;;;;;4.80;1.75;;;;;;;39.00;10.33;99400.63;6176320;22;20048;-82
2022/05/18 09:23:17;;;;;;;2.92;1.40;;;;;;;40.00;9.59;99398.75;6245394;23;20384;-82
2022/05/18 09:26:19;;;;;;;4.50;2.60;;;;;;;40.66;9.33;99320.44;6244769;23;20034;-82
2022/05/18 09:29:24;;;;;;;8.70;1.92;;;;;;;40.92;9.31;99332.97;6143002;23;20022;-83
2022/05/18 09:32:48;;;;;;;2.95;1.10;;;;;;;41.27;9.46;99388.06;6228144;23;20535;-83
2022/05/18 09:35:49;;;;;;;3.70;1.90;;;;;;;40.56;10.14;99409.97;6253242;23;20027;-81
2022/05/18 09:38:36;;;;;;;4.55;1.00;;;;;;;41.66;9.02;99405.91;6219983;23;20015;-83
2022/05/18 09:41:07;;;;;;;2.60;1.02;;;;;;;41.53;9.14;99387.78;6252474;23;20019;-82
2022/05/18 09:43:55;;;;;;;2.22;1.50;;;;;;;41.51;9.02;99398.06;6217398;23;20022;-80
2022/05/18 09:46:32;;;;;;;1.88;1.67;;;;;;;41.43;9.13;99357.44;6192162;23;20461;-81
2022/05/18 09:49:03;;;;;;;4.82;3.75;;;;;;;41.07;9.45;99389.88;6199676;23;20024;-83
2022/05/18 09:51:29;;;;;;;5.90;2.58;;;;;;;40.74;9.74;99401.91;6219238;23;20020;-83
2022/05/18 09:54:16;;;;;;;3.60;1.90;;;;;;;40.82;9.47;99409.00;6217353;23;20106;-80
2022/05/18 09:57:05;;;;;;;1.88;1.15;;;;;;;41.13;9.22;99376.44;6215569;23;20085;-81
2022/05/18 09:59:38;;;;;;;1.30;1.20;;;;;;;41.27;8.70;99396.25;6245456;23;20504;-81
2022/05/18 10:08:14;;;;;;;3.97;1.42;;;;;;;42.15;8.63;99383.25;6247090;23;20016;-82
2022/05/18 10:10:41;;;;;;;3.17;2.85;;;;;;;41.47;8.56;99385.09;6195813;23;20020;-82
2022/05/18 10:13:13;;;;;;;3.95;2.33;;;;;;;40.29;8.89;99401.97;6225890;23;20052;-80
2022/05/18 10:15:59;;;;;;;4.00;3.05;;;;;;;38.87;9.96;99371.56;6272993;22;20019;-80
2022/05/18 10:18:42;;;;;;;4.05;1.25;;;;;;;39.54;9.63;99397.84;6282526;22;20021;-81
2022/05/18 10:21:18;;;;;;;3.42;1.60;;;;;;;39.93;9.22;99393.34;6229676;22;20019;-83
2022/05/18 10:23:51;;;;;;;6.60;1.40;;;;;;;39.61;9.46;99391.31;6250009;22;20022;-83
2022/05/18 10:26:38;;;;;;;7.47;1.90;;;;;;;37.10;10.47;99383.78;6276650;22;20022;-83
2022/05/18 10:29:13;;;;;;;4.40;3.22;;;;;;;35.28;11.42;99392.50;6284168;22;20502;-80
2022/05/18 10:32:01;;;;;;;5.03;2.60;;;;;;;33.67;12.08;99388.59;6228048;22;20012;-81
2022/05/18 10:34:32;;;;;;;36.42;29.58;;;;;;;32.15;12.90;99336.75;6254610;22;20617;-82
2022/05/18 10:37:01;;;;;;;2.13;1.83;;;;;;;31.72;13.75;99395.09;6230583;22;20043;-81
2022/05/18 10:39:47;;;;;;;5.25;2.25;;;;;;;30.46;14.20;99394.25;6279691;22;20491;-80
2022/05/18 10:42:29;;;;;;;6.95;6.25;;;;;;;29.13;15.54;99359.56;6279860;22;20015;-80
2022/05/18 10:44:59;;;;;;;4.75;3.20;;;;;;;28.63;15.90;99394.50;6255350;22;20042;-82
2022/05/18 10:47:32;;;;;;;4.57;2.13;;;;;;;28.05;16.66;99396.06;6280210;22;20052;-82
2022/05/18 10:50:37;;;;;;;2.63;1.40;;;;;;;27.48;17.67;99404.53;6228248;22;20050;-83
2022/05/18 10:53:32;;;;;;;1.95;1.48;;;;;;;27.03;17.16;99366.44;6275974;22;20090;-84
2022/05/18 10:56:03;;;;;;;2.13;1.63;;;;;;;27.08;18.07;99408.78;6215732;22;20051;-82
2022/05/18 10:58:37;;;;;;;4.28;1.58;;;;;;;27.15;18.27;99406.44;6248515;22;20395;-81
2022/05/18 11:01:22;;;;;;;5.80;1.90;;;;;;;26.74;18.52;99396.41;6248492;22;20405;-80
2022/05/18 11:03:56;;;;;;;3.35;2.70;;;;;;;26.49;18.91;99405.56;6277435;22;20035;-79
2022/05/18 11:06:31;;;;;;;3.00;2.10;;;;;;;25.94;19.21;99357.56;6277269;22;20019;-84
2022/05/18 11:09:00;;;;;;;2.33;1.40;;;;;;;25.62;19.26;99356.47;6225219;22;20016;-84
2022/05/18 11:11:52;;;;;;;3.95;1.20;;;;;;;25.60;19.58;99406.34;6202730;22;20019;-79
2022/05/18 11:14:24;;;;;;;12.13;9.25;;;;;;;25.26;19.95;99419.59;6252711;22;20145;-78
2022/05/18 11:17:09;;;;;;;16.98;12.40;;;;;;;25.02;20.26;99419.66;6231724;23;20016;-80
2022/05/18 11:19:47;;;;;;;13.32;9.50;;;;;;;24.76;20.41;99423.28;6233171;23;20015;-80
2022/05/18 11:22:25;;;;;;;7.95;5.15;;;;;;;24.42;20.77;99431.06;6247489;23;20016;-78
2022/05/18 11:25:27;;;;;;;2.05;1.30;;;;;;;24.11;21.04;99421.81;6221140;23;20023;-85
2022/05/18 11:28:16;;;;;;;2.20;1.92;;;;;;;23.62;21.75;99422.44;6251751;23;20024;-78
2022/05/18 11:31:24;;;;;;;1.90;1.50;;;;;;;23.57;21.96;99423.72;6197920;23;20016;-81
2022/05/18 11:34:15;;;;;;;2.58;1.00;;;;;;;23.58;21.80;99438.72;6202346;23;20026;-82
2022/05/18 11:37:04;;;;;;;4.00;1.30;;;;;;;23.40;21.95;99432.84;6224616;23;20414;-81
2022/05/18 11:39:55;;;;;;;2.10;1.20;;;;;;;23.21;22.11;99436.75;6252115;22;20020;-82
2022/05/18 11:42:40;;;;;;;3.15;1.52;;;;;;;23.00;22.23;99433.72;6258052;23;20064;-79
2022/05/18 11:45:28;;;;;;;1.35;1.20;;;;;;;22.69;22.63;99378.28;6260778;23;20047;-81
2022/05/18 11:48:19;;;;;;;5.40;1.35;;;;;;;23.14;22.68;99428.34;6252962;23;20012;-80
2022/05/18 11:51:05;;;;;;;;;;;;;;;23.11;23.15;99430.34;6261884;23;20016;-80
2022/05/18 11:53:47;;;;;;;4.72;1.30;;;;;;;22.70;22.79;99357.88;6257021;23;19939;-84
2022/05/18 11:56:32;;;;;;;4.32;1.17;;;;;;;22.86;22.92;99426.69;6248553;23;20019;-82
2022/05/18 11:59:28;;;;;;;2.85;1.20;;;;;;;22.60;23.64;99423.09;6252436;23;20020;-82
2022/05/18 12:02:27;;;;;;;18.33;11.68;;;;;;;22.72;23.82;99422.28;6201312;23;20020;-81
2022/05/18 12:05:18;;;;;;;6.68;3.83;;;;;;;22.71;23.69;99426.75;6232506;23;20011;-80
2022/05/18 12:07:59;;;;;;;13.80;11.50;;;;;;;22.74;24.09;99425.69;6220030;23;20400;-83
2022/05/18 12:10:50;;;;;;;6.47;2.95;;;;;;;22.37;23.91;99404.19;6251737;22;20020;-82
2022/05/18 12:13:31;;;;;;;4.53;2.33;;;;;;;22.42;24.12;99420.63;6247589;23;20016;-81
2022/05/18 12:16:18;;;;;;;7.80;5.15;;;;;;;22.34;23.89;99401.75;6219080;23;20095;-82
2022/05/18 12:18:50;;;;;;;7.95;1.20;;;;;;;22.22;24.27;99427.22;6244568;23;20123;-85
2022/05/18 12:21:27;;;;;;;4.00;1.20;;;;;;;21.72;24.42;99368.53;6251252;23;20042;-80
2022/05/18 12:24:05;;;;;;;6.78;2.15;;;;;;;22.08;23.44;99438.69;6255571;23;20023;-79
2022/05/18 12:26:34;;;;;;;5.53;3.50;;;;;;;21.85;23.67;99395.94;6262729;23;20024;-78
2022/05/18 12:29:01;;;;;;;20.65;12.13;;;;;;;21.85;24.25;99414.47;6235208;23;20027;-80
2022/05/18 12:31:33;;;;;;;10.45;7.45;;;;;;;21.76;24.49;99431.78;6257213;23;20020;-78
2022/05/18 12:34:16;;;;;;;16.30;12.13;;;;;;;21.57;24.45;99441.78;6232414;23;20020;-80
2022/05/18 12:36:54;;;;;;;11.02;8.55;;;;;;;21.72;24.76;99432.09;6258983;23;20015;-79
2022/05/18 12:40:02;;;;;;;6.55;3.13;;;;;;;21.63;24.64;99439.63;6259062;22;20138;-81
2022/05/18 12:42:31;;;;;;;6.30;2.97;;;;;;;21.23;24.92;99399.66;6260337;23;20016;-80
2022/05/18 12:45:21;;;;;;;1.92;1.17;;;;;;;21.18;24.93;99434.34;6265080;23;20087;-80
2022/05/18 12:48:05;;;;;;;62.33;41.38;;;;;;;20.96;25.02;99442.66;6244788;23;20027;-83
2022/05/18 12:50:41;;;;;;;4.75;3.08;;;;;;;20.79;25.57;99435.69;6241048;23;20020;-81
2022/05/18 12:53:25;;;;;;;4.93;2.95;;;;;;;20.37;25.40;99401.00;6266127;23;20020;-82
2022/05/18 12:56:01;;;;;;;7.70;3.65;;;;;;;20.51;25.85;99433.72;6268051;23;20015;-79
2022/05/18 12:58:50;;;;;;;1.70;1.30;;;;;;;20.00;25.43;99319.41;6261880;23;20023;-80
2022/05/18 13:01:19;;;;;;;30.13;22.98;;;;;;;20.33;25.40;99370.41;6250577;23;20330;-83